CheckWX is a tool to help pilots better visualize weather data.  It is not intended as a substitute for an official pre-flight weather briefing.

09:15:11 UTC

KPMV METAR
Plattsmouth Municipal Airport
Plattsmouth, Nebraska, USA
Current

20 mins ago

KPMV 250855Z AUTO 12009G14KT 10SM OVC034 19/16 A2994 RMK AO2 T01910162
Observed
Aug-25 @ 08:55 UTC
Wind
  • 120° at 9 KTS
  • Gusting to 14 KTS
Visibility
10 SM
Flight Rules
VFR
Cloud Levels
  • Overcast at 3,400' AGL
Temperature
19°C / 66°F
Dewpoint
16°C / 61°F
Humidity
83%
Altimeter
29.94" Hg
Pressure
1013.92 hPa
Previous

40 mins ago

KPMV 250835Z AUTO 13007KT 10SM OVC032 19/16 A2996 RMK AO2 T01920164
Observed
Aug-25 @ 08:35 UTC
Wind
  • 130° at 7 KTS
Visibility
10 SM
Flight Rules
VFR
Cloud Levels
  • Overcast at 3,200' AGL
Temperature
19°C / 66°F
Dewpoint
16°C / 61°F
Humidity
83%
Altimeter
29.96" Hg
Pressure
1014.52 hPa
Previous

60 mins ago

KPMV 250815Z AUTO 12010G17KT 10SM OVC032 19/16 A2996 RMK AO2 LTG DSNT SW T01940164
Observed
Aug-25 @ 08:15 UTC
Wind
  • 120° at 10 KTS
  • Gusting to 17 KTS
Visibility
10 SM
Flight Rules
VFR
Cloud Levels
  • Overcast at 3,200' AGL
Temperature
19°C / 66°F
Dewpoint
16°C / 61°F
Humidity
83%
Altimeter
29.96" Hg
Pressure
1014.52 hPa